createdAt,value
2023-02-21T00:00:17.639Z,101206.97
2023-02-21T00:03:07.386Z,101207.59
2023-02-21T00:05:55.920Z,101211.78
2023-02-21T00:08:44.547Z,101136.44
2023-02-21T00:11:32.893Z,101211.84
2023-02-21T00:14:20.990Z,101198.50
2023-02-21T00:17:09.624Z,101215.69
2023-02-21T00:19:58.042Z,101226.09
2023-02-21T00:22:46.049Z,101228.38
2023-02-21T00:25:34.044Z,101227.38
2023-02-21T00:28:22.817Z,101230.69
2023-02-21T00:31:11.232Z,101232.38
2023-02-21T00:34:00.063Z,101238.41
2023-02-21T00:36:48.884Z,101246.13
2023-02-21T00:39:37.120Z,101250.50
2023-02-21T00:42:25.617Z,101258.59
2023-02-21T00:45:13.929Z,101258.53
2023-02-21T00:48:02.232Z,101260.38
2023-02-21T00:50:51.549Z,101253.97
2023-02-21T00:53:39.991Z,101259.38
2023-02-21T00:56:28.319Z,101257.28
2023-02-21T00:59:16.397Z,101264.38
2023-02-21T01:02:04.725Z,101263.31
2023-02-21T01:04:53.146Z,101262.31
2023-02-21T01:07:41.761Z,101263.97
2023-02-21T01:10:30.036Z,101263.97
2023-02-21T01:13:18.488Z,101272.72
2023-02-21T01:16:06.781Z,101285.16
2023-02-21T01:18:55.337Z,101271.50
2023-02-21T01:21:43.722Z,101274.03
2023-02-21T01:24:34.419Z,101280.25
2023-02-21T01:27:22.645Z,101271.97
2023-02-21T01:30:10.894Z,101273.63
2023-02-21T01:32:59.218Z,101269.91
2023-02-21T01:35:48.433Z,101267.84
2023-02-21T01:38:37.089Z,101269.53
2023-02-21T01:41:25.656Z,101272.00
2023-02-21T01:44:21.485Z,101279.94
2023-02-21T01:47:10.368Z,101274.13
2023-02-21T01:50:00.643Z,101271.22
2023-02-21T01:52:49.222Z,101279.13
2023-02-21T01:55:37.563Z,101275.41
2023-02-21T01:58:26.255Z,101270.88
2023-02-21T02:01:15.057Z,101267.78
2023-02-21T02:04:05.164Z,101269.25
2023-02-21T02:06:54.858Z,101271.72
2023-02-21T02:09:43.325Z,101275.06
2023-02-21T02:12:31.124Z,101276.56
2023-02-21T02:15:07.560Z,101278.22
2023-02-21T02:17:52.841Z,101285.91
2023-02-21T02:20:25.638Z,101276.81
2023-02-21T02:23:18.429Z,101280.97
2023-02-21T02:26:06.618Z,101279.94
2023-02-21T02:28:36.846Z,101277.66
2023-02-21T02:31:27.630Z,101277.28
2023-02-21T02:34:11.269Z,101281.44
2023-02-21T02:36:45.647Z,101278.56
2023-02-21T02:39:15.650Z,101275.47
2023-02-21T02:41:48.768Z,101276.09
2023-02-21T02:44:18.933Z,101272.34
2023-02-21T02:46:50.942Z,101268.22
2023-02-21T02:49:24.615Z,101267.22
2023-02-21T02:51:55.029Z,101274.94
2023-02-21T02:54:27.953Z,101272.88
2023-02-21T02:57:00.396Z,101275.38
2023-02-21T02:59:34.744Z,101275.78
2023-02-21T03:02:04.936Z,101269.16
2023-02-21T03:04:53.212Z,101270.84
2023-02-21T03:07:27.186Z,101264.22
2023-02-21T03:10:15.664Z,101270.03
2023-02-21T03:12:53.506Z,101268.81
2023-02-21T03:15:34.472Z,101279.22
2023-02-21T03:18:23.169Z,101272.75
2023-02-21T03:20:56.679Z,101279.44
2023-02-21T03:23:29.052Z,101281.75
2023-02-21T03:26:01.308Z,101268.88
2023-02-21T03:28:32.421Z,101272.19
2023-02-21T03:31:05.529Z,101266.59
2023-02-21T03:33:35.662Z,101263.50
2023-02-21T03:36:10.653Z,101268.50
2023-02-21T03:38:41.505Z,101267.25
2023-02-21T03:41:13.064Z,101254.38
2023-02-21T03:43:43.342Z,101260.22
2023-02-21T03:46:14.497Z,101258.16
2023-02-21T03:48:45.005Z,101240.69
2023-02-21T03:51:22.810Z,101247.59
2023-02-21T03:53:53.469Z,101231.97
2023-02-21T03:56:41.525Z,101239.91
2023-02-21T03:59:27.632Z,101230.31
2023-02-21T04:01:58.338Z,101234.50
2023-02-21T04:04:32.069Z,101227.84
2023-02-21T04:07:15.100Z,101222.03
2023-02-21T04:09:46.191Z,101211.84
2023-02-21T04:12:19.944Z,101208.72
2023-02-21T04:14:50.115Z,101200.19
2023-02-21T04:17:20.513Z,101199.78
2023-02-21T04:19:51.313Z,101202.06
2023-02-21T04:22:21.696Z,101194.59
2023-02-21T04:24:53.558Z,101185.03
2023-02-21T04:27:25.950Z,101177.53
2023-02-21T04:29:59.162Z,101177.13
2023-02-21T04:32:29.211Z,101171.31
2023-02-21T04:34:59.569Z,101169.22
2023-02-21T04:37:29.828Z,101155.25
2023-02-21T04:40:01.244Z,101153.19
2023-02-21T04:42:33.788Z,101144.66
2023-02-21T04:45:04.594Z,101142.56
2023-02-21T04:47:34.739Z,101139.47
2023-02-21T04:50:05.215Z,101135.53
2023-02-21T04:52:35.264Z,101138.03
2023-02-21T04:55:05.367Z,101133.22
2023-02-21T04:57:35.361Z,101125.72
2023-02-21T05:00:08.700Z,101114.72
2023-02-21T05:02:38.811Z,101112.59
2023-02-21T05:05:09.445Z,101104.28
2023-02-21T05:07:39.454Z,101104.06
2023-02-21T05:10:11.110Z,101100.09
2023-02-21T05:12:41.415Z,101093.66
2023-02-21T05:15:12.214Z,101088.00
2023-02-21T05:17:42.622Z,101090.53
2023-02-21T05:20:13.529Z,101086.56
2023-02-21T05:22:44.157Z,101079.91
2023-02-21T05:25:24.659Z,101075.94
2023-02-21T05:27:55.688Z,101068.84
2023-02-21T05:30:26.057Z,101056.75
2023-02-21T05:32:56.153Z,101058.41
2023-02-21T05:35:26.175Z,101053.63
2023-02-21T05:37:56.296Z,101052.59
2023-02-21T05:40:26.333Z,101053.19
2023-02-21T05:42:56.732Z,101045.06
2023-02-21T05:45:27.102Z,100984.81
2023-02-21T05:48:01.562Z,101031.09
2023-02-21T05:50:31.836Z,101031.72
2023-02-21T05:53:02.519Z,101024.22
2023-02-21T05:55:33.168Z,101024.59
2023-02-21T05:58:03.239Z,101016.28
2023-02-21T06:00:33.815Z,101007.72
2023-02-21T06:03:04.983Z,101001.25
2023-02-21T06:05:35.146Z,100993.53
2023-02-21T06:08:05.322Z,101004.78
2023-02-21T06:10:35.632Z,100998.31
2023-02-21T06:13:05.700Z,100997.88
2023-02-21T06:15:35.792Z,100993.06
2023-02-21T06:18:05.921Z,100989.94
2023-02-21T06:20:35.948Z,100975.31
2023-02-21T06:23:05.933Z,100967.00
2023-02-21T06:25:36.177Z,100963.03
2023-02-21T06:28:06.625Z,100965.28
2023-02-21T06:30:36.790Z,100957.78
2023-02-21T06:33:06.830Z,100955.66
2023-02-21T06:35:36.945Z,100951.91
2023-02-21T06:38:06.955Z,100939.81
2023-02-21T06:40:36.981Z,100940.63
2023-02-21T06:43:07.153Z,100930.41
2023-02-21T06:45:37.336Z,100925.59
2023-02-21T06:48:07.658Z,100922.66
2023-02-21T06:50:38.123Z,100915.97
2023-02-21T06:53:08.172Z,100917.41
2023-02-21T06:55:38.280Z,100911.75
2023-02-21T06:58:08.348Z,100912.63
2023-02-21T07:00:38.370Z,100904.25
2023-02-21T07:03:08.457Z,100913.81
2023-02-21T07:05:40.013Z,100895.66
2023-02-21T07:08:10.234Z,100889.78
2023-02-21T07:10:40.490Z,100891.22
2023-02-21T07:13:10.977Z,100892.91
2023-02-21T07:15:41.053Z,100877.47
2023-02-21T07:18:11.324Z,100878.09
2023-02-21T07:20:41.787Z,100872.44
2023-02-21T07:23:11.974Z,100872.25
2023-02-21T07:25:42.619Z,100863.88
2023-02-21T07:28:13.473Z,100858.25
2023-02-21T07:30:43.986Z,100857.78
2023-02-21T07:33:14.222Z,100848.59
2023-02-21T07:35:44.446Z,100853.56
2023-02-21T07:38:24.627Z,100846.03
2023-02-21T07:41:01.290Z,100850.19
2023-02-21T07:43:32.601Z,100850.56
2023-02-21T07:46:03.202Z,100852.22
2023-02-21T07:48:33.257Z,100844.66
2023-02-21T07:51:03.301Z,100846.34
2023-02-21T07:53:33.341Z,100837.97
2023-02-21T07:56:03.585Z,100841.28
2023-02-21T07:58:33.941Z,100838.34
2023-02-21T08:01:04.790Z,100838.13
2023-02-21T08:03:35.071Z,100833.06
2023-02-21T08:06:05.702Z,100774.47
2023-02-21T08:08:35.745Z,100832.59
2023-02-21T08:11:06.536Z,100827.78
2023-02-21T08:13:36.559Z,100825.91
2023-02-21T08:16:06.785Z,100825.69
2023-02-21T08:18:36.966Z,100823.59
2023-02-21T08:21:10.784Z,100816.88
2023-02-21T08:23:41.304Z,100816.88
2023-02-21T08:26:11.390Z,100817.25
2023-02-21T08:28:41.405Z,100811.38
2023-02-21T08:31:11.534Z,100812.22
2023-02-21T08:33:41.824Z,100814.25
2023-02-21T08:36:12.193Z,100809.41
2023-02-21T08:38:42.537Z,100811.66
2023-02-21T08:41:12.830Z,100812.03
2023-02-21T08:43:43.254Z,100806.34
2023-02-21T08:46:13.326Z,100795.06
2023-02-21T08:48:44.292Z,100804.59
2023-02-21T08:51:14.937Z,100801.47
2023-02-21T08:53:45.311Z,100796.38
2023-02-21T08:56:19.950Z,100794.84
2023-02-21T08:58:50.449Z,100798.16
2023-02-21T09:01:20.889Z,100797.69
2023-02-21T09:03:51.126Z,100793.47
2023-02-21T09:06:21.275Z,100792.41
2023-02-21T09:08:51.272Z,100791.94
2023-02-21T09:11:21.352Z,100790.66
2023-02-21T09:13:51.750Z,100750.84
2023-02-21T09:16:21.889Z,100791.59
2023-02-21T09:19:00.421Z,100797.44
2023-02-21T09:21:30.674Z,100807.88
2023-02-21T09:24:00.870Z,100807.75
2023-02-21T09:26:34.025Z,100813.84
2023-02-21T09:29:04.090Z,100808.50
2023-02-21T09:31:34.206Z,100815.56
2023-02-21T09:34:04.318Z,100815.44
2023-02-21T09:36:37.294Z,100816.03
2023-02-21T09:39:08.048Z,100823.59
2023-02-21T09:41:38.850Z,100827.72
2023-02-21T09:44:09.262Z,100814.00
2023-02-21T09:46:50.628Z,100818.97
2023-02-21T09:49:23.628Z,100826.88
2023-02-21T09:51:55.052Z,100831.09
2023-02-21T09:54:35.564Z,100839.84
2023-02-21T09:57:07.583Z,100840.69
2023-02-21T09:59:37.629Z,100846.09
2023-02-21T10:02:17.435Z,100847.75
2023-02-21T10:04:59.561Z,100853.19
2023-02-21T10:07:39.458Z,100854.44
2023-02-21T10:10:29.855Z,100856.13
2023-02-21T10:13:20.260Z,100857.41
2023-02-21T10:15:50.322Z,100860.34
2023-02-21T10:18:27.381Z,100868.00
2023-02-21T10:21:00.978Z,100869.69
2023-02-21T10:23:34.096Z,100874.88
2023-02-21T10:26:08.842Z,100876.16
2023-02-21T10:28:39.324Z,100885.34
2023-02-21T10:31:38.668Z,100886.63
2023-02-21T10:34:18.235Z,100891.69
2023-02-21T10:36:49.482Z,100894.63
2023-02-21T10:39:39.604Z,100897.31
2023-02-21T10:42:15.206Z,100908.41
2023-02-21T10:44:45.544Z,100909.69
2023-02-21T10:47:25.709Z,100917.22
2023-02-21T10:50:03.383Z,100921.81
2023-02-21T10:52:38.989Z,100928.88
2023-02-21T10:55:31.318Z,100931.00
2023-02-21T10:58:12.111Z,100936.41
2023-02-21T11:00:49.425Z,100947.25
2023-02-21T11:03:22.302Z,100942.69
2023-02-21T11:05:59.166Z,100938.53
2023-02-21T11:08:43.756Z,100943.97
2023-02-21T11:11:14.176Z,100941.09
2023-02-21T11:13:45.661Z,100943.19
2023-02-21T11:16:26.246Z,100950.72
2023-02-21T11:19:09.341Z,100947.41
2023-02-21T11:21:39.648Z,100954.94
2023-02-21T11:24:09.989Z,100963.06
2023-02-21T11:26:54.947Z,100960.34
2023-02-21T11:29:27.428Z,100965.41
2023-02-21T11:31:58.050Z,100965.00
2023-02-21T11:34:30.926Z,100968.97
2023-02-21T11:37:04.372Z,100973.56
2023-02-21T11:39:35.297Z,100970.25
2023-02-21T11:42:08.383Z,100974.22
2023-02-21T11:44:42.618Z,100983.19
2023-02-21T11:47:18.349Z,100987.16
2023-02-21T11:50:02.925Z,100988.44
2023-02-21T11:52:49.736Z,100992.41
2023-02-21T11:55:26.347Z,100988.63
2023-02-21T11:58:08.419Z,100994.28
2023-02-21T12:00:39.980Z,100990.97
2023-02-21T12:03:13.204Z,101000.16
2023-02-21T12:05:56.273Z,101002.44
2023-02-21T12:08:45.240Z,100999.97
2023-02-21T12:11:35.518Z,101007.50
2023-02-21T12:14:05.690Z,101004.16
2023-02-21T12:16:44.560Z,101005.22
2023-02-21T12:19:52.857Z,101003.56
2023-02-21T12:22:42.486Z,101012.53
2023-02-21T12:25:25.514Z,101008.38
2023-02-21T12:28:03.263Z,101018.59
2023-02-21T12:30:54.345Z,101012.56
2023-02-21T12:33:43.100Z,101019.84
2023-02-21T12:36:23.723Z,101019.84
2023-02-21T12:38:58.562Z,101024.44
2023-02-21T12:41:45.076Z,101024.44
2023-02-21T12:44:17.955Z,101021.97
2023-02-21T12:47:05.699Z,101023.00
2023-02-21T12:49:45.838Z,101024.06
2023-02-21T12:52:24.757Z,101026.16
2023-02-21T12:54:54.890Z,101027.41
2023-02-21T12:57:32.573Z,101030.94
2023-02-21T13:00:09.421Z,101025.75
2023-02-21T13:02:59.986Z,101026.19
2023-02-21T13:05:47.142Z,101022.88
2023-02-21T13:08:25.104Z,101030.38
2023-02-21T13:11:16.725Z,101032.47
2023-02-21T13:13:49.380Z,101033.53
2023-02-21T13:16:25.587Z,101031.03
2023-02-21T13:19:02.748Z,101027.91
2023-02-21T13:21:52.802Z,101026.28
2023-02-21T13:24:42.386Z,101030.00
2023-02-21T13:27:26.076Z,101037.50
2023-02-21T13:30:22.131Z,101028.56
2023-02-21T13:32:59.556Z,101031.47
2023-02-21T13:35:38.027Z,101037.94
2023-02-21T13:38:16.993Z,100957.56
2023-02-21T13:41:10.634Z,101037.53
2023-02-21T13:43:55.568Z,101037.31
2023-02-21T13:46:30.851Z,101041.31
2023-02-21T13:49:23.919Z,101044.28
2023-02-21T13:51:58.260Z,101049.91
2023-02-21T13:54:30.482Z,101051.38
2023-02-21T13:57:02.386Z,101052.19
2023-02-21T13:59:37.970Z,101056.75
2023-02-21T14:02:24.730Z,101060.72
2023-02-21T14:04:58.306Z,101059.22
2023-02-21T14:07:53.488Z,101063.19
2023-02-21T14:10:45.237Z,101070.88
2023-02-21T14:13:35.204Z,101076.44
2023-02-21T14:16:19.942Z,101075.41
2023-02-21T14:19:13.154Z,101071.66
2023-02-21T14:21:48.622Z,101079.81
2023-02-21T14:24:23.884Z,101083.84
2023-02-21T14:27:04.172Z,101084.72
2023-02-21T14:29:42.237Z,101087.66
2023-02-21T14:32:12.686Z,101091.81
2023-02-21T14:34:50.031Z,101088.91
2023-02-21T14:37:39.607Z,101096.38
2023-02-21T14:40:20.930Z,101106.72
2023-02-21T14:43:11.001Z,101103.63
2023-02-21T14:46:12.014Z,101105.47
2023-02-21T14:49:05.656Z,101114.16
2023-02-21T14:52:04.994Z,101112.69
2023-02-21T14:54:46.750Z,101114.97
2023-02-21T14:57:43.453Z,101120.75
2023-02-21T15:00:25.294Z,101123.41
2023-02-21T15:06:15.512Z,101112.38
2023-02-21T15:08:53.359Z,101111.50
2023-02-21T15:11:34.236Z,101111.06
2023-02-21T15:14:26.867Z,101108.53
2023-02-21T15:17:02.440Z,101109.34
2023-02-21T15:19:38.602Z,101111.81
2023-02-21T15:22:17.627Z,101113.84
2023-02-21T15:25:02.057Z,101115.53
2023-02-21T15:27:32.160Z,101122.63
2023-02-21T15:30:15.171Z,101118.09
2023-02-21T15:32:59.708Z,101116.00
2023-02-21T15:35:42.042Z,101114.34
2023-02-21T15:38:22.848Z,101125.53
2023-02-21T15:40:57.108Z,101107.66
2023-02-21T15:43:42.995Z,101110.16
2023-02-21T15:46:16.752Z,101116.78
2023-02-21T15:48:48.207Z,101104.91
2023-02-21T15:51:28.304Z,101115.47
2023-02-21T15:54:17.064Z,101109.59
2023-02-21T15:56:47.378Z,101109.16
2023-02-21T15:59:29.945Z,101109.53
2023-02-21T16:02:20.191Z,101105.38
2023-02-21T16:04:56.637Z,101097.69
2023-02-21T16:07:29.481Z,101110.72
2023-02-21T16:10:07.589Z,101096.59
2023-02-21T16:12:41.072Z,101097.41
2023-02-21T16:15:29.821Z,101103.59
2023-02-21T16:18:05.063Z,101097.38
2023-02-21T16:20:35.185Z,101101.06
2023-02-21T16:23:30.758Z,101094.41
2023-02-21T16:26:19.899Z,101097.28
2023-02-21T16:28:50.259Z,101086.47
2023-02-21T16:31:31.225Z,101091.03
2023-02-21T16:34:04.507Z,101079.22
2023-02-21T16:36:41.982Z,101077.56
2023-02-21T16:39:13.549Z,101075.69
2023-02-21T16:41:43.874Z,101073.16
2023-02-21T16:44:25.792Z,101073.56
2023-02-21T16:46:57.574Z,101068.56
2023-02-21T16:49:29.529Z,101061.91
2023-02-21T16:51:59.699Z,101058.19
2023-02-21T16:54:29.680Z,101065.63
2023-02-21T16:56:59.632Z,101058.56
2023-02-21T16:59:29.682Z,101053.56
2023-02-21T17:01:59.922Z,101051.06
2023-02-21T17:04:31.125Z,101055.59
2023-02-21T17:07:08.197Z,101053.06
2023-02-21T17:09:42.340Z,101051.59
2023-02-21T17:12:14.007Z,101053.47
2023-02-21T17:14:44.192Z,101043.53
2023-02-21T17:17:14.251Z,101049.31
2023-02-21T17:19:44.546Z,101048.03
2023-02-21T17:22:14.560Z,101044.69
2023-02-21T17:24:44.666Z,101052.34
2023-02-21T17:27:16.051Z,101041.34
2023-02-21T17:29:46.230Z,101043.44
2023-02-21T17:32:16.533Z,101038.81
2023-02-21T17:34:46.720Z,101047.53
2023-02-21T17:37:16.748Z,101042.97
2023-02-21T17:39:46.854Z,101040.47
2023-02-21T17:42:17.209Z,101049.59
2023-02-21T17:44:48.731Z,101047.91
2023-02-21T17:47:22.643Z,101042.53
2023-02-21T17:49:55.842Z,101035.47
2023-02-21T17:52:25.934Z,101043.56
2023-02-21T17:54:56.350Z,101046.66
2023-02-21T17:57:27.081Z,101044.97
2023-02-21T17:59:57.156Z,101043.31
2023-02-21T18:02:27.141Z,101045.34
2023-02-21T18:05:00.353Z,101042.00
2023-02-21T18:07:34.020Z,101038.50
2023-02-21T18:10:05.736Z,101036.84
2023-02-21T18:12:35.942Z,101032.00
2023-02-21T18:15:08.309Z,101039.09
2023-02-21T18:17:39.034Z,101039.47
2023-02-21T18:20:11.012Z,101031.41
2023-02-21T18:22:41.104Z,101033.06
2023-02-21T18:25:11.590Z,101033.22
2023-02-21T18:27:41.678Z,101017.47
2023-02-21T18:30:12.386Z,101020.53
2023-02-21T18:32:42.774Z,101025.09
2023-02-21T18:35:12.764Z,101019.06
2023-02-21T18:37:43.260Z,101018.44
2023-02-21T18:40:15.247Z,101017.16
2023-02-21T18:42:45.870Z,101021.25
2023-02-21T18:45:15.852Z,101017.31
2023-02-21T18:47:45.947Z,101018.19
2023-02-21T18:50:16.584Z,101025.22
2023-02-21T18:52:46.987Z,101019.00
2023-02-21T18:55:18.944Z,101010.72
2023-02-21T18:57:49.420Z,101008.69
2023-02-21T19:00:20.620Z,101009.47
2023-02-21T19:02:50.943Z,101011.94
2023-02-21T19:05:22.687Z,101011.09
2023-02-21T19:07:53.640Z,101012.78
2023-02-21T19:10:25.276Z,101014.84
2023-02-21T19:12:55.617Z,101016.69
2023-02-21T19:15:25.604Z,101016.84
2023-02-21T19:17:55.940Z,101017.06
2023-02-21T19:20:26.037Z,101018.91
2023-02-21T19:22:57.438Z,101016.19
2023-02-21T19:25:29.149Z,101017.25
2023-02-21T19:28:01.733Z,101025.31
2023-02-21T19:30:35.647Z,101022.63
2023-02-21T19:33:07.202Z,101022.34
2023-02-21T19:35:39.041Z,101026.75
2023-02-21T19:38:10.163Z,101027.75
2023-02-21T19:40:40.132Z,101030.44
2023-02-21T19:43:10.266Z,101027.13
2023-02-21T19:45:40.343Z,101036.22
2023-02-21T19:48:10.435Z,101036.22
2023-02-21T19:50:41.257Z,101035.38
2023-02-21T19:53:11.515Z,101034.53
2023-02-21T19:55:41.723Z,101032.88
2023-02-21T19:58:11.999Z,101031.22
2023-02-21T20:00:45.546Z,101034.09
2023-02-21T20:03:15.687Z,101032.63
2023-02-21T20:05:45.812Z,101042.34
2023-02-21T20:08:15.897Z,101030.94
2023-02-21T20:10:45.906Z,101039.22
2023-02-21T20:13:15.976Z,101040.69
2023-02-21T20:15:46.357Z,101046.09
2023-02-21T20:18:16.374Z,101042.75
2023-02-21T20:20:47.110Z,101043.75
2023-02-21T20:23:18.207Z,101043.13
2023-02-21T20:25:48.223Z,101039.41
2023-02-21T20:28:18.714Z,101041.06
2023-02-21T20:30:48.775Z,101036.06
2023-02-21T20:33:21.979Z,101031.31
2023-02-21T20:35:52.669Z,101034.00
2023-02-21T20:38:22.917Z,101040.22
2023-02-21T20:40:53.000Z,101038.75
2023-02-21T20:43:22.992Z,101039.78
2023-02-21T20:45:53.262Z,101035.44
2023-02-21T20:48:26.867Z,101034.78
2023-02-21T20:50:56.914Z,101036.81
2023-02-21T20:53:27.002Z,101038.69
2023-02-21T20:55:57.352Z,101037.19
2023-02-21T20:58:27.357Z,101042.59
2023-02-21T21:00:57.374Z,101042.78
2023-02-21T21:03:30.806Z,101043.78
2023-02-21T21:06:00.770Z,101042.31
2023-02-21T21:08:30.848Z,101050.38
2023-02-21T21:11:00.995Z,101050.66
2023-02-21T21:13:31.204Z,101057.78
2023-02-21T21:16:01.239Z,101055.81
2023-02-21T21:18:31.841Z,101062.94
2023-02-21T21:21:03.589Z,101059.50
2023-02-21T21:23:34.020Z,101056.41
2023-02-21T21:26:06.630Z,101065.31
2023-02-21T21:28:37.737Z,101064.44
2023-02-21T21:31:10.298Z,101065.81
2023-02-21T21:33:41.318Z,101070.56
2023-02-21T21:36:12.416Z,101064.53
2023-02-21T21:38:43.569Z,101063.91
2023-02-21T21:41:16.844Z,101063.63
2023-02-21T21:43:47.741Z,101066.69
2023-02-21T21:46:17.890Z,101079.31
2023-02-21T21:48:47.992Z,101070.44
2023-02-21T21:51:18.552Z,101070.81
2023-02-21T21:53:48.716Z,101074.88
2023-02-21T21:56:23.861Z,101085.00
2023-02-21T21:58:53.974Z,101075.63
2023-02-21T22:01:23.979Z,101084.38
2023-02-21T22:03:54.013Z,101071.81
2023-02-21T22:06:24.566Z,101087.03
2023-02-21T22:08:57.436Z,101082.75
2023-02-21T22:11:27.599Z,101081.97
2023-02-21T22:13:58.027Z,101085.97
2023-02-21T22:16:28.196Z,101084.56
2023-02-21T22:18:58.200Z,101087.72
2023-02-21T22:21:28.921Z,101087.25
2023-02-21T22:23:59.125Z,101094.06
2023-02-21T22:26:30.190Z,101091.47
2023-02-21T22:29:00.639Z,101102.97
2023-02-21T22:31:30.813Z,101113.50
2023-02-21T22:34:03.491Z,101106.63
2023-02-21T22:36:34.263Z,101114.69
2023-02-21T22:39:10.952Z,101122.19
2023-02-21T22:41:41.319Z,101120.44
2023-02-21T22:44:14.002Z,101126.09
2023-02-21T22:46:45.391Z,101127.38
2023-02-21T22:49:18.624Z,101135.94
2023-02-21T22:51:48.709Z,101126.44
2023-02-21T22:54:18.705Z,101134.69
2023-02-21T22:56:56.238Z,101076.78
2023-02-21T22:59:27.362Z,101144.66
2023-02-21T23:01:59.888Z,101150.03
2023-02-21T23:04:30.230Z,101147.19
2023-02-21T23:07:00.899Z,101151.44
2023-02-21T23:09:31.644Z,101161.44
2023-02-21T23:12:02.289Z,101165.44
2023-02-21T23:14:38.342Z,101161.38
2023-02-21T23:17:10.909Z,101171.38
2023-02-21T23:19:41.271Z,101179.06
2023-02-21T23:22:11.626Z,101184.28
2023-02-21T23:24:44.910Z,101184.56
2023-02-21T23:27:14.905Z,101185.84
2023-02-21T23:29:44.938Z,101196.06
2023-02-21T23:32:15.221Z,101192.16
2023-02-21T23:34:51.897Z,101198.44
2023-02-21T23:37:21.918Z,101196.38
2023-02-21T23:39:51.982Z,101206.41
2023-02-21T23:42:21.947Z,101206.00
2023-02-21T23:44:52.372Z,101214.38
2023-02-21T23:47:23.010Z,101199.84
2023-02-21T23:49:53.533Z,101219.03
2023-02-21T23:52:24.248Z,101217.19
2023-02-21T23:54:56.851Z,101231.53
2023-02-21T23:57:26.944Z,101123.84
2023-02-21T23:59:56.980Z,101227.91
